CheckWX is a tool to help pilots better visualize weather data.  It is not intended as a substitute for an official pre-flight weather briefing.

13:43:37 UTC

EVLA METAR
Liepāja International Airport
Liepāja, Latvia
Current

24 mins ago

EVLA 211320Z AUTO 28008KT 240V320 9999 BKN012/// 15/12 Q1015
Observed
Sep-21 @ 13:20 UTC
Wind
  • 280° at 8 KTS
Visibility
10,000+ meters
Flight Rules
MVFR
Cloud Levels
  • Broken at 1,200' AGL
Temperature
15°C / 59°F
Dewpoint
12°C / 54°F
Humidity
82%
Altimeter
29.97" Hg
Pressure
1014.92 hPa
Previous

54 mins ago

EVLA 211250Z AUTO 28007KT 240V330 9999 FEW011/// OVC013/// 15/12 Q1015
Observed
Sep-21 @ 12:50 UTC
Wind
  • 280° at 7 KTS
Visibility
10,000+ meters
Flight Rules
MVFR
Cloud Levels
  • Few at 1,100' AGL
  • Overcast at 1,300' AGL
Temperature
15°C / 59°F
Dewpoint
12°C / 54°F
Humidity
82%
Altimeter
29.97" Hg
Pressure
1014.92 hPa
Previous

1 hour ago

EVLA 211220Z AUTO 29009KT 260V320 9999 OVC012/// 15/12 Q1015
Observed
Sep-21 @ 12:20 UTC
Wind
  • 290° at 9 KTS
Visibility
10,000+ meters
Flight Rules
MVFR
Cloud Levels
  • Overcast at 1,200' AGL
Temperature
15°C / 59°F
Dewpoint
12°C / 54°F
Humidity
82%
Altimeter
29.97" Hg
Pressure
1014.92 hPa